Terminal Aerodrome Forecast
Issued by NWS Des Moines, IA

Current Version | Previous Version | Text Only | Print | Product List | Glossary On
Versions: 1 2 3 4 5 6 7 8 9 10 11 12 13 14 15 16 17 18 19 20 21 22 23 24 25
000
FTUS43 KDMX 121124
TAFDSM
TAF
KDSM 121124Z 1212/1312 VRB04KT P6SM BKN080 OVC150
     FM121500 24006KT P6SM SCT035 BKN140
     FM122300 24006KT P6SM VCTS SCT035CB BKN060
     FM130600 36005KT P6SM SCT080 BKN100=

USA.gov is the U.S. government's official web portal to all federal, state and local government web resources and services.